Latest Weather Observations for Alice Springs Airport

IDD60801

Issued at 1:01 pm CST Friday 26 May 2017 (issued every 30 minutes, with the page automatically refreshed every 10 minutes)

About weather observations | Map of weather stations | Latest weather observations for NT | Other Formats
Station Details ID: 015590 Name: ALICE SPRINGS AIRPORT Lat: -23.80 Lon: 133.89 Height: 546.0 m
Data from the previous 72 hours. | See also: Recent months at Alice Springs Airport
Date/Time
CST
Temp
°C
App
Temp
°C
Dew
Point
°C
Rel
Hum
%
Delta-T
°C
Wind Press
QNH
hPa
Press
MSL
hPa
Rain since
9am
mm
Dir  Spd
km/h
Gust
km/h
Spd
kts
Gust
kts
26/12:30pm 25.0 21.2 1.9 22 11.3 ENE 11 15 6 8 1019.6 1018.5 0.0
26/12:00pm 25.0 20.7 1.1 21 11.5 ENE 13 24 7 13 1020.3 1019.1 0.0
26/11:30am 23.4 18.9 0.0 21 10.9 ENE 13 17 7 9 1020.9 1019.7 0.0
26/11:00am 22.2 17.6 -1.0 21 10.5 E 13 20 7 11 1021.5 1020.4 0.0
26/10:30am 21.5 16.5 -0.9 22 10.1 ENE 15 20 8 11 1022.0 1020.8 0.0
26/10:00am 18.6 16.7 0.8 30 8.1 CALM 0 0 0 0 1022.6 1021.5 0.0
26/09:30am 17.1 14.5 1.2 34 7.2 S 4 7 2 4 1022.7 1021.6 0.0
26/09:00am 15.9 13.9 0.2 34 6.9 CALM 0 0 0 0 1022.7 1021.6 0.0
26/08:30am 13.9 11.9 -0.1 38 6.0 CALM 0 0 0 0 1022.4 1021.2 0.0
26/08:00am 11.3 9.3 -0.2 45 4.8 CALM 0 0 0 0 1022.2 1021.0 0.0
26/07:30am 8.8 6.7 -0.6 51 3.8 CALM 0 0 0 0 1022.1 1020.9 0.0
26/07:00am 8.5 6.4 -0.7 52 3.7 CALM 0 0 0 0 1021.6 1020.5 0.0
26/06:30am 9.1 5.9 -0.8 50 4.0 SW 6 7 3 4 1021.4 1020.3 0.0
26/06:00am 9.1 5.7 -0.5 51 3.9 WSW 7 9 4 5 1021.2 1020.1 0.0
26/05:30am 8.8 5.0 -0.6 51 3.8 WNW 9 9 5 5 1021.0 1019.9 0.0
26/05:00am 8.2 4.6 -1.8 49 3.9 W 7 9 4 5 1020.8 1019.6 0.0
26/04:30am 8.8 5.3 -1.6 48 4.1 SW 7 9 4 5 1020.7 1019.5 0.0
26/04:00am 9.4 6.1 -1.0 48 4.2 NW 6 7 3 4 1020.8 1019.6 0.0
26/03:30am 9.1 5.8 -1.5 47 4.2 NNE 6 7 3 4 1020.9 1019.7 0.0
26/03:00am 10.1 6.8 -1.3 45 4.6 NNW 6 7 3 4 1021.2 1020.1 0.0
26/02:30am 11.1 7.8 -0.2 45 4.7 ENE 7 9 4 5 1021.4 1020.3 0.0
26/02:00am 11.7 7.1 -1.2 41 5.3 SE 13 17 7 9 1021.5 1020.4 0.0
26/01:30am 11.0 7.2 -1.0 43 4.9 SE 9 11 5 6 1021.8 1020.6 0.0
26/01:00am 12.1 7.6 -0.6 41 5.3 SE 13 15 7 8 1022.0 1020.8 0.0
26/12:30am 11.3 8.1 -0.5 44 4.9 ESE 6 7 3 4 1022.2 1021.0 0.0
26/12:00am 11.8 8.6 -0.4 43 5.1 NE 6 7 3 4 1022.3 1021.1 0.0
 
Date/Time
CST
Temp
°C
App
Temp
°C
Dew
Point
°C
Rel
Hum
%
Delta-T
°C
Wind Press
QNH
hPa
Press
MSL
hPa
Rain since
9am
mm
Dir  Spd
km/h
Gust
km/h
Spd
kts
Gust
kts
25/11:30pm 13.0 9.4 0.5 42 5.4 SE 9 13 5 7 1022.4 1021.2 0.0
25/11:00pm 13.6 10.0 0.8 41 5.6 ESE 9 9 5 5 1022.6 1021.5 0.0
25/10:30pm 14.8 11.7 0.4 37 6.3 ENE 6 7 3 4 1022.5 1021.3 0.0
25/10:00pm 14.7 11.2 1.5 40 5.9 N 9 9 5 5 1022.4 1021.2 0.0
25/09:30pm 14.6 11.4 -0.3 36 6.4 SE 6 7 3 4 1022.1 1020.9 0.0
25/09:00pm 16.3 12.2 -0.5 32 7.3 SE 11 11 6 6 1021.8 1020.6 0.0
25/08:30pm 16.0 12.3 2.6 40 6.2 SE 11 13 6 7 1021.6 1020.5 0.0
25/08:00pm 18.1 13.6 -0.4 28 8.2 SE 13 15 7 8 1021.3 1020.2 0.0
25/07:30pm 19.4 15.3 -0.5 26 8.9 ESE 11 15 6 8 1020.9 1019.7 0.0
25/07:00pm 20.7 16.2 -0.6 24 9.6 SE 13 15 7 8 1020.7 1019.5 0.0
25/06:30pm 22.1 16.7 -1.1 21 10.5 SE 17 22 9 12 1020.2 1019.0 0.0
25/06:00pm 23.4 18.0 -1.5 19 11.3 SE 17 28 9 15 1019.9 1018.7 0.0
25/05:30pm 24.9 18.1 -1.9 17 12.2 ESE 24 33 13 18 1019.3 1018.1 0.0
25/05:00pm 26.4 20.4 -1.3 16 12.9 SE 20 33 11 18 1019.1 1017.9 0.0
25/04:30pm 27.3 22.0 -0.4 16 13.2 ESE 17 24 9 13 1019.0 1017.8 0.0
25/04:00pm 27.2 22.0 -0.2 16 13.1 E 17 26 9 14 1019.0 1017.8 0.0
25/03:30pm 26.9 22.6 1.1 18 12.6 E 13 20 7 11 1019.2 1018.0 0.0
25/03:00pm 26.6 22.3 0.8 18 12.5 ESE 13 26 7 14 1019.4 1018.3 0.0
25/02:30pm 26.3 22.4 1.3 19 12.2 E 11 19 6 10 1019.6 1018.5 0.0
25/02:00pm 26.1 21.0 0.5 18 12.3 ESE 17 22 9 12 1020.0 1018.8 0.0
25/01:30pm 26.1 21.6 -0.3 17 12.5 ESE 13 19 7 10 1020.5 1019.3 0.0
25/01:00pm 24.9 20.0 -0.2 19 11.8 E 15 19 8 10 1021.0 1019.9 0.0
25/12:30pm 24.0 18.3 -1.0 19 11.5 E 19 24 10 13 1021.5 1020.4 0.0
25/12:00pm 24.4 18.4 -1.8 17 11.9 ENE 20 28 11 15 1022.2 1021.0 0.0
25/11:30am 22.8 16.4 -1.7 19 11.0 E 22 30 12 16 1022.6 1021.5 0.0
25/11:00am 21.8 14.7 -1.4 21 10.4 ENE 26 33 14 18 1022.8 1021.7 0.0
25/10:30am 20.6 15.3 -0.8 24 9.6 ENE 17 24 9 13 1023.4 1022.3 0.0
25/10:00am 19.6 16.0 0.9 28 8.6 ENE 9 13 5 7 1024.0 1022.8 0.0
25/09:30am 17.6 14.4 3.3 38 6.8 SE 9 13 5 7 1024.0 1022.8 0.0
25/09:00am 15.6 12.6 1.7 39 6.3 S 7 11 4 6 1023.6 1022.5 0.0
25/08:30am 14.4 12.4 2.3 44 5.5 WNW 2 9 1 5 1023.3 1022.2 0.0
25/08:00am 12.0 9.0 2.0 50 4.4 NNW 7 9 4 5 1022.8 1021.7 0.0
25/07:30am 11.6 9.5 1.8 51 4.3 S 2 6 1 3 1022.4 1021.2 0.0
25/07:20am 10.9 8.1 2.0 54 3.9 S 6 7 3 4 1022.3 1021.1 0.0
25/07:08am 11.2 8.8 2.4 54 3.9 SW 4 9 2 5 1022.1 1020.9 0.0
25/07:00am 11.3 8.3 2.2 53 4.0 SW 7 9 4 5 1022.1 1020.9 0.0
25/06:30am 10.9 9.2 1.7 53 4.0 CALM 0 0 0 0 1021.6 1020.5 0.0
25/06:00am 11.8 10.1 2.1 51 4.3 CALM 0 0 0 0 1021.4 1020.3 0.0
25/05:30am 11.7 9.6 1.9 51 4.3 W 2 6 1 3 1021.1 1020.0 0.0
25/05:00am 11.3 8.4 1.4 50 4.3 SE 6 7 3 4 1021.2 1020.1 0.0
25/04:30am 10.7 7.6 1.4 52 4.0 SW 7 9 4 5 1021.3 1020.2 0.0
25/04:00am 11.2 9.5 2.1 53 4.0 CALM 0 0 0 0 1021.2 1020.1 0.0
25/03:30am 11.0 8.2 1.8 53 4.0 NNW 6 7 3 4 1021.3 1020.2 0.0
25/03:00am 11.7 8.6 1.6 50 4.4 E 7 7 4 4 1021.4 1020.3 0.0
25/02:30am 11.5 8.5 1.9 51 4.2 SE 7 7 4 4 1021.8 1020.6 0.0
25/02:00am 12.0 8.7 2.3 51 4.3 E 9 9 5 5 1021.8 1020.6 0.0
25/01:30am 12.1 9.0 1.6 48 4.6 NE 7 9 4 5 1022.1 1020.9 0.0
25/01:00am 12.3 8.9 1.9 49 4.6 ESE 9 11 5 6 1022.3 1021.1 0.0
25/12:30am 13.5 10.8 3.8 52 4.5 E 7 7 4 4 1022.6 1021.5 0.0
25/12:00am 13.8 10.5 2.3 45 5.2 E 9 9 5 5 1022.7 1021.6 0.0
 
Date/Time
CST
Temp
°C
App
Temp
°C
Dew
Point
°C
Rel
Hum
%
Delta-T
°C
Wind Press
QNH
hPa
Press
MSL
hPa
Rain since
9am
mm
Dir  Spd
km/h
Gust
km/h
Spd
kts
Gust
kts
24/11:30pm 13.1 9.9 3.0 50 4.6 SSE 9 11 5 6 1023.0 1021.9 0.0
24/11:00pm 15.8 11.7 2.0 39 6.3 E 13 17 7 9 1022.7 1021.6 0.0
24/10:30pm 15.6 11.8 2.0 40 6.2 ESE 11 13 6 7 1022.8 1021.7 0.0
24/10:00pm 16.3 12.2 2.2 38 6.5 E 13 15 7 8 1022.7 1021.6 0.0
24/09:30pm 16.9 12.4 1.9 36 6.9 ENE 15 19 8 10 1023.0 1021.9 0.0
24/09:00pm 16.6 13.7 2.6 39 6.5 E 7 9 4 5 1023.1 1022.0 0.0
24/08:30pm 17.5 14.6 2.5 36 7.0 E 7 9 4 5 1022.8 1021.7 0.0
24/08:00pm 17.9 14.8 3.5 38 6.9 E 9 11 5 6 1022.5 1021.3 0.0
24/07:30pm 18.9 15.6 2.7 34 7.7 SE 9 11 5 6 1022.2 1021.0 0.0
24/07:00pm 20.1 16.4 2.2 30 8.5 ESE 11 15 6 8 1021.8 1020.6 0.0
24/06:30pm 21.4 17.3 2.2 28 9.2 E 13 15 7 8 1021.3 1020.2 0.0
24/06:00pm 22.3 17.8 2.2 26 9.7 E 15 20 8 11 1021.1 1020.0 0.0
24/05:30pm 23.4 18.1 1.9 24 10.4 E 19 28 10 15 1020.6 1019.4 0.0
24/05:00pm 23.9 18.4 2.1 24 10.6 ESE 20 26 11 14 1020.4 1019.2 0.0
24/04:30pm 24.6 19.1 1.8 22 11.1 E 20 30 11 16 1020.2 1019.0 0.0
24/04:00pm 24.7 19.2 2.0 22 11.1 E 20 32 11 17 1020.3 1019.1 0.0
24/03:30pm 24.4 18.9 2.1 23 10.9 E 20 30 11 16 1020.5 1019.3 0.0
24/03:00pm 24.2 18.0 2.4 24 10.7 E 24 30 13 16 1020.6 1019.4 0.0
24/02:30pm 23.3 17.9 2.7 26 10.1 ESE 20 30 11 16 1020.8 1019.6 0.0
24/02:00pm 24.0 18.2 2.3 24 10.6 ENE 22 32 12 17 1021.2 1020.1 0.0
24/01:30pm 22.9 17.5 2.6 26 9.9 E 20 32 11 17 1021.6 1020.5 0.0
24/01:00pm 22.4 16.3 2.7 27 9.6 E 24 35 13 19 1022.3 1021.1 0.0
24/12:30pm 21.1 13.9 3.2 30 8.7 E 30 39 16 21 1022.6 1021.5 0.0
24/12:00pm 21.5 15.9 3.3 30 8.9 E 22 30 12 16 1023.3 1022.2 0.0
24/11:30am 21.2 16.0 3.4 31 8.7 E 20 28 11 15 1024.0 1022.8 0.0
24/11:00am 20.4 14.5 3.9 33 8.1 E 24 30 13 16 1024.3 1023.2 0.0
24/10:30am 19.8 14.6 3.5 34 7.9 E 20 30 11 16 1024.9 1023.8 0.0
24/10:00am 19.2 14.2 3.7 36 7.5 E 19 28 10 15 1025.0 1023.9 0.0
24/09:30am 18.6 13.4 3.7 37 7.2 E 20 28 11 15 1025.0 1023.9 0.0
24/09:00am 17.3 13.9 4.0 41 6.4 ESE 11 17 6 9 1025.0 1023.9 0.0
24/08:30am 15.1 12.5 4.4 48 5.1 ESE 7 11 4 6 1024.7 1023.6 0.0
24/08:00am 12.4 11.0 3.7 55 4.0 CALM 0 0 0 0 1024.2 1023.1 0.0
24/07:30am 9.4 6.4 1.7 58 3.3 SSW 7 7 4 4 1023.6 1022.5 0.0
24/07:00am 9.5 6.8 2.7 62 3.0 SSW 6 7 3 4 1023.2 1022.1 0.0
24/06:30am 9.6 7.9 1.7 58 3.4 CALM 0 0 0 0 1022.9 1021.8 0.0
24/06:00am 9.8 8.2 2.5 60 3.2 CALM 0 0 0 0 1022.5 1021.3 0.0
24/05:30am 10.4 7.1 2.7 59 3.4 E 9 11 5 6 1022.3 1021.1 0.0
24/05:00am 11.1 8.2 2.5 55 3.8 WNW 7 9 4 5 1022.3 1021.1 0.0
24/04:30am 11.5 8.7 3.1 56 3.8 NW 7 9 4 5 1022.3 1021.1 0.0
24/04:00am 11.6 9.8 3.5 57 3.7 SE 2 9 1 5 1022.1 1020.9 0.0
24/03:30am 11.3 9.4 2.8 56 3.8 NW 2 6 1 3 1022.0 1020.8 0.0
24/03:00am 11.3 9.7 2.5 54 3.9 CALM 0 0 0 0 1022.0 1020.8 0.0
24/02:30am 11.9 10.3 2.2 51 4.3 CALM 0 2 0 1 1022.1 1020.9 0.0
24/02:00am 12.1 9.5 3.0 53 4.1 S 6 7 3 4 1022.2 1021.0 0.0
24/01:30am 13.3 11.6 3.8 52 4.4 SW 2 7 1 4 1022.2 1021.0 0.0
24/01:00am 13.7 12.3 3.8 51 4.6 CALM 0 0 0 0 1022.2 1021.0 0.0
24/12:30am 14.5 13.2 3.9 49 5.0 CALM 0 0 0 0 1022.3 1021.1 0.0
24/12:00am 14.4 12.3 3.7 48 5.0 NW 4 7 2 4 1022.3 1021.1 0.0
 
Date/Time
CST
Temp
°C
App
Temp
°C
Dew
Point
°C
Rel
Hum
%
Delta-T
°C
Wind Press
QNH
hPa
Press
MSL
hPa
Rain since
9am
mm
Dir  Spd
km/h
Gust
km/h
Spd
kts
Gust
kts
23/11:30pm 15.7 13.3 4.2 46 5.5 S 6 7 3 4 1022.4 1021.2 0.0
23/11:00pm 16.0 13.4 3.2 42 6.0 S 6 6 3 3 1022.4 1021.2 0.0
23/10:30pm 15.8 14.3 3.2 43 5.9 CALM 0 7 0 4 1022.4 1021.2 0.0
23/10:00pm 16.3 14.9 3.6 42 6.0 CALM 0 0 0 0 1022.2 1021.0 0.0
23/09:30pm 16.9 14.9 4.3 43 6.1 E 4 6 2 3 1022.0 1020.8 0.0
23/09:00pm 18.0 15.8 5.3 43 6.3 ESE 6 7 3 4 1021.9 1020.7 0.0
23/08:30pm 19.2 16.1 5.5 40 6.9 SSE 11 11 6 6 1021.4 1020.3 0.0
23/08:00pm 19.4 16.1 4.7 38 7.3 SSE 11 13 6 7 1021.0 1019.9 0.0
23/07:30pm 20.4 16.6 3.9 33 8.1 SSE 13 17 7 9 1020.6 1019.4 0.0
23/07:00pm 21.9 18.6 4.6 32 8.7 SSE 11 13 6 7 1020.2 1019.0 0.0
23/06:30pm 23.6 20.2 4.2 28 9.8 SE 11 17 6 9 1019.9 1018.7 0.0
23/06:00pm 25.1 21.4 4.4 26 10.6 SSE 13 19 7 10 1019.4 1018.3 0.0
23/05:30pm 26.8 22.0 4.7 24 11.5 SSE 19 26 10 14 1018.9 1017.7 0.0
23/05:00pm 27.6 23.5 6.4 26 11.4 SSE 17 26 9 14 1018.8 1017.6 0.0
23/04:30pm 28.2 23.9 5.4 23 12.1 S 17 26 9 14 1018.6 1017.4 0.0
23/04:00pm 28.2 23.8 4.8 22 12.3 S 17 24 9 13 1018.5 1017.3 0.0
23/03:30pm 28.7 24.7 4.8 22 12.6 S 15 26 8 14 1018.4 1017.2 0.0
23/03:00pm 28.3 24.3 4.7 22 12.4 S 15 24 8 13 1018.5 1017.3 0.0
23/02:30pm 27.6 24.3 4.3 22 12.1 SSE 11 20 6 11 1018.6 1017.4 0.0
23/02:00pm 27.7 24.1 5.1 23 11.9 SSW 13 20 7 11 1018.8 1017.6 0.0
23/01:30pm 27.7 24.1 5.1 23 11.9 SSW 13 26 7 14 1019.2 1018.0 0.0

Other Formats:

Comma delimited format used in spreadsheet applications
http://www.bom.gov.au/fwo/IDD60801/IDD60801.94326.axf

JavaScript Object Notation format (JSON) in row-major order
http://www.bom.gov.au/fwo/IDD60801/IDD60801.94326.json